Time;durP1;ratioP1;P1;durP2;ratioP2;P2;SDS_P1;SDS_P2;PMS_P1;PMS_P2;Temp;Humidity;BMP_temperature;BMP_pressure;BME280_temperature;BME280_humidity;BME280_pressure;Samples;Min_cycle;Max_cycle;Signal;HPM_P1;HPM_P2
2021/09/11 00:00:47;;;;;;;3.90;2.43;;;;;;;14.34;100.00;96680.88;5072287;28;20197;-76
2021/09/11 00:03:14;;;;;;;3.47;2.90;;;;;;;14.28;100.00;96682.38;5072158;28;20201;-76
2021/09/11 00:05:41;;;;;;;3.20;2.80;;;;;;;14.18;100.00;96679.13;5071669;28;20223;-76
2021/09/11 00:08:09;;;;;;;2.93;2.57;;;;;;;14.14;100.00;96677.00;5072039;28;20197;-76
2021/09/11 00:10:36;;;;;;;3.10;2.57;;;;;;;14.02;100.00;96679.16;5071948;28;20288;-76
2021/09/11 00:13:03;;;;;;;2.37;2.17;;;;;;;13.90;100.00;96684.00;5072113;28;20226;-77
2021/09/11 00:15:32;;;;;;;5.37;3.10;;;;;;;13.86;100.00;96677.41;5071902;28;20203;-76
2021/09/11 00:18:02;;;;;;;3.37;2.60;;;;;;;13.89;100.00;96679.72;5072271;28;20201;-76
2021/09/11 00:20:30;;;;;;;3.80;2.93;;;;;;;13.91;100.00;96682.19;5072103;28;20192;-76
2021/09/11 00:22:58;;;;;;;3.40;2.80;;;;;;;13.89;100.00;96681.50;5071676;28;20197;-76
2021/09/11 00:25:25;;;;;;;5.33;3.40;;;;;;;13.90;100.00;96677.91;5071674;28;20235;-76
2021/09/11 00:27:53;;;;;;;4.43;2.77;;;;;;;13.88;100.00;96683.34;5071604;28;20737;-76
2021/09/11 00:30:20;;;;;;;3.97;2.97;;;;;;;13.92;100.00;96681.19;5071803;28;20201;-76
2021/09/11 00:32:47;;;;;;;3.03;2.57;;;;;;;13.94;100.00;96687.94;5072150;28;20587;-76
2021/09/11 00:35:17;;;;;;;4.60;2.93;;;;;;;13.99;100.00;96685.63;5071841;28;20207;-76
2021/09/11 00:37:45;;;;;;;4.43;3.17;;;;;;;13.98;100.00;96683.97;5072217;28;20189;-76
2021/09/11 00:40:15;;;;;;;2.70;2.50;;;;;;;14.04;100.00;96687.75;5071518;28;20279;-76
2021/09/11 00:42:47;;;;;;;5.17;3.37;;;;;;;13.93;100.00;96682.84;5071840;28;20205;-76
2021/09/11 00:45:15;;;;;;;3.03;2.80;;;;;;;13.91;100.00;96676.91;5071653;28;20245;-76
2021/09/11 00:47:43;;;;;;;3.60;2.70;;;;;;;13.94;100.00;96671.28;5071685;28;20189;-76
2021/09/11 00:50:11;;;;;;;6.50;3.03;;;;;;;13.82;100.00;96677.91;5071880;28;20280;-76
2021/09/11 00:52:42;;;;;;;3.43;3.13;;;;;;;13.69;100.00;96667.88;5071920;28;20193;-76
2021/09/11 00:55:11;;;;;;;3.47;3.07;;;;;;;13.75;100.00;96667.19;5071758;28;20284;-76
2021/09/11 00:57:42;;;;;;;3.27;2.73;;;;;;;13.61;100.00;96667.88;5071653;28;20236;-76
2021/09/11 01:00:11;;;;;;;4.10;2.80;;;;;;;13.39;100.00;96666.75;5071672;28;20193;-76
2021/09/11 01:02:38;;;;;;;3.60;3.30;;;;;;;13.47;100.00;96669.38;5071637;28;20240;-76
2021/09/11 01:05:07;;;;;;;3.47;3.17;;;;;;;13.49;100.00;96673.50;5071179;28;20610;-76
2021/09/11 01:07:35;;;;;;;3.43;2.83;;;;;;;13.41;100.00;96672.69;5071736;28;20197;-76
2021/09/11 01:10:05;;;;;;;5.50;3.37;;;;;;;13.29;100.00;96672.19;5071388;28;20197;-76
2021/09/11 01:12:33;;;;;;;5.43;3.57;;;;;;;13.30;100.00;96676.47;5071711;28;20285;-76
2021/09/11 01:15:02;;;;;;;6.33;3.43;;;;;;;13.14;100.00;96673.81;5070953;28;20201;-76
2021/09/11 01:17:29;;;;;;;4.37;3.20;;;;;;;13.12;100.00;96671.34;5071808;28;20556;-76
2021/09/11 01:19:56;;;;;;;3.63;3.03;;;;;;;13.25;100.00;96670.88;5071465;28;20224;-76
2021/09/11 01:22:24;;;;;;;3.10;2.60;;;;;;;13.35;100.00;96670.72;5072057;28;20280;-76
2021/09/11 01:24:58;;;;;;;4.13;3.63;;;;;;;13.09;100.00;96669.88;5071131;28;20316;-76
2021/09/11 01:27:26;;;;;;;4.83;2.73;;;;;;;13.03;100.00;96670.53;5071488;28;20189;-76
2021/09/11 01:29:55;;;;;;;3.70;3.20;;;;;;;12.78;100.00;96671.47;5071099;28;20201;-76
2021/09/11 01:32:25;;;;;;;4.70;2.97;;;;;;;12.69;100.00;96673.28;5071364;28;20284;-76
2021/09/11 01:34:53;;;;;;;5.60;3.43;;;;;;;12.66;100.00;96670.94;5070770;28;20189;-76
2021/09/11 01:37:20;;;;;;;4.00;3.00;;;;;;;12.52;100.00;96669.75;5071190;28;20687;-76
2021/09/11 01:39:48;;;;;;;3.23;2.93;;;;;;;12.41;100.00;96662.16;5071080;28;20688;-76
2021/09/11 01:42:17;;;;;;;3.30;2.90;;;;;;;12.73;100.00;96668.50;5074542;28;20264;-76
2021/09/11 01:44:47;;;;;;;4.13;2.63;;;;;;;12.95;100.00;96673.13;5074419;28;20721;-76
2021/09/11 01:47:14;;;;;;;3.77;2.60;;;;;;;13.26;100.00;96675.97;5074529;28;20254;-76
2021/09/11 01:49:42;;;;;;;3.40;2.30;;;;;;;13.47;100.00;96672.00;5074443;28;20207;-76
2021/09/11 01:52:10;;;;;;;4.03;2.60;;;;;;;13.59;100.00;96681.25;5074872;28;20280;-76
2021/09/11 01:54:38;;;;;;;4.27;2.50;;;;;;;13.66;100.00;96670.84;5074700;28;20611;-76
2021/09/11 01:57:07;;;;;;;2.83;2.57;;;;;;;13.61;100.00;96673.97;5074518;28;20288;-76
2021/09/11 01:59:36;;;;;;;3.30;2.73;;;;;;;13.72;100.00;96675.47;5074128;28;20199;-76
2021/09/11 02:02:04;;;;;;;3.70;2.80;;;;;;;13.75;100.00;96670.66;5074408;28;20200;-76
2021/09/11 02:04:31;;;;;;;2.90;2.60;;;;;;;13.75;100.00;96675.09;5074383;28;20201;-76
2021/09/11 02:06:59;;;;;;;10.47;2.77;;;;;;;13.87;100.00;96672.94;5074333;28;20204;-76
2021/09/11 02:09:26;;;;;;;3.20;2.80;;;;;;;13.90;100.00;96678.72;5073826;28;20201;-77
2021/09/11 02:11:53;;;;;;;3.07;2.60;;;;;;;13.96;100.00;96678.06;5074240;28;20573;-76
2021/09/11 02:14:21;;;;;;;3.50;2.80;;;;;;;13.97;100.00;96674.41;5073866;28;20673;-76
2021/09/11 02:16:50;;;;;;;2.83;2.50;;;;;;;13.99;100.00;96672.44;5074229;28;20197;-76
2021/09/11 02:19:17;;;;;;;3.20;2.63;;;;;;;13.96;100.00;96679.88;5073790;28;20197;-76
2021/09/11 02:21:45;;;;;;;4.57;2.70;;;;;;;13.87;100.00;96668.47;5073973;28;20197;-76
2021/09/11 02:24:13;;;;;;;3.07;2.87;;;;;;;13.84;100.00;96673.28;5073547;28;20327;-76
2021/09/11 02:26:40;;;;;;;2.70;2.50;;;;;;;13.79;100.00;96674.63;5074384;28;20292;-76
2021/09/11 02:29:08;;;;;;;2.90;2.40;;;;;;;13.90;100.00;96670.78;5073811;28;20560;-76
2021/09/11 02:31:35;;;;;;;6.13;2.90;;;;;;;13.85;100.00;96675.75;5073857;28;20243;-76
2021/09/11 02:34:04;;;;;;;9.93;3.10;;;;;;;13.93;100.00;96674.91;5073623;28;20200;-76
2021/09/11 02:36:31;;;;;;;3.00;2.77;;;;;;;14.01;100.00;96673.06;5073826;28;20193;-77
2021/09/11 02:38:58;;;;;;;5.40;2.40;;;;;;;13.89;100.00;96679.72;5073912;28;20280;-76
2021/09/11 02:41:25;;;;;;;2.60;2.23;;;;;;;13.94;100.00;96681.84;5073931;28;20908;-76
2021/09/11 02:43:52;;;;;;;4.87;2.27;;;;;;;13.85;100.00;96680.22;5073139;28;20280;-75
2021/09/11 02:46:20;;;;;;;3.37;2.20;;;;;;;13.86;100.00;96687.97;5073563;28;20311;-76
2021/09/11 02:48:47;;;;;;;2.70;2.10;;;;;;;13.84;100.00;96689.94;5073307;28;20197;-76
2021/09/11 02:51:15;;;;;;;3.20;2.50;;;;;;;13.80;100.00;96689.47;5073070;28;20692;-76
2021/09/11 02:53:43;;;;;;;4.37;2.30;;;;;;;13.87;100.00;96680.88;5072146;28;20669;-76
2021/09/11 02:56:10;;;;;;;3.43;2.40;;;;;;;13.80;100.00;96688.66;5092637;28;20702;-76
2021/09/11 02:58:37;;;;;;;2.67;2.47;;;;;;;13.79;100.00;96689.66;5093329;28;20204;-76
2021/09/11 03:01:04;;;;;;;2.60;2.40;;;;;;;13.80;100.00;96694.75;5092685;28;20193;-76
2021/09/11 03:03:32;;;;;;;3.93;2.70;;;;;;;13.84;100.00;96691.78;5093510;28;20274;-76
2021/09/11 03:05:59;;;;;;;2.60;2.13;;;;;;;13.82;100.00;96699.88;5093249;28;20220;-76
2021/09/11 03:08:27;;;;;;;3.03;2.80;;;;;;;13.76;100.00;96690.81;5093410;28;20204;-76
2021/09/11 03:10:55;;;;;;;4.77;2.53;;;;;;;13.79;100.00;96692.28;5092587;28;20201;-76
2021/09/11 03:13:22;;;;;;;3.90;2.80;;;;;;;13.64;100.00;96691.31;5093419;28;20202;-76
2021/09/11 03:15:49;;;;;;;9.07;3.27;;;;;;;13.63;100.00;96695.78;5092983;28;20680;-76
2021/09/11 03:18:17;;;;;;;4.37;2.83;;;;;;;13.64;100.00;96693.94;5093529;28;20629;-76
2021/09/11 03:20:46;;;;;;;3.17;2.83;;;;;;;13.69;100.00;96696.94;5093038;28;20239;-76
2021/09/11 03:23:14;;;;;;;3.00;2.50;;;;;;;13.70;100.00;96703.84;5093054;28;20195;-76
2021/09/11 03:25:43;;;;;;;3.47;2.30;;;;;;;13.72;100.00;96697.41;5092315;28;20655;-76
2021/09/11 03:28:11;;;;;;;3.77;2.63;;;;;;;13.75;100.00;96701.53;5093227;28;20195;-76
2021/09/11 03:30:38;;;;;;;5.73;3.83;;;;;;;13.80;100.00;96693.94;5092481;28;20244;-76
2021/09/11 03:33:06;;;;;;;4.43;3.87;;;;;;;13.83;100.00;96698.06;5092864;28;20200;-76
2021/09/11 03:35:33;;;;;;;4.83;4.07;;;;;;;13.87;100.00;96694.91;5092682;28;20188;-76
2021/09/11 03:38:01;;;;;;;4.43;3.80;;;;;;;13.89;100.00;96698.22;5092764;28;20238;-76
2021/09/11 03:40:28;;;;;;;3.37;3.13;;;;;;;13.86;100.00;96687.97;5092260;28;20231;-76
2021/09/11 03:42:57;;;;;;;3.93;3.17;;;;;;;13.90;100.00;96693.75;5092764;28;20286;-76
2021/09/11 03:45:24;;;;;;;4.40;2.87;;;;;;;13.98;100.00;96699.00;5092740;28;20311;-76
2021/09/11 03:47:52;;;;;;;3.50;3.10;;;;;;;13.98;100.00;96701.66;5092537;28;20196;-76
2021/09/11 03:50:19;;;;;;;4.20;2.90;;;;;;;13.87;100.00;96702.84;5092428;28;20203;-76
2021/09/11 03:52:46;;;;;;;6.30;2.67;;;;;;;13.86;100.00;96689.81;5092808;28;20196;-75
2021/09/11 03:55:13;;;;;;;3.40;2.70;;;;;;;13.60;100.00;96693.47;5092317;28;20661;-76
2021/09/11 03:57:42;;;;;;;7.47;3.13;;;;;;;13.44;100.00;96689.03;5092379;28;20283;-76
2021/09/11 04:00:12;;;;;;;3.03;2.73;;;;;;;13.33;100.00;96689.34;5092128;28;20196;-76
2021/09/11 04:02:39;;;;;;;3.33;3.03;;;;;;;13.01;100.00;96684.84;5092053;28;20188;-76
2021/09/11 04:05:07;;;;;;;5.37;2.80;;;;;;;12.54;100.00;96680.16;5092058;28;20634;-76
2021/09/11 04:07:35;;;;;;;2.90;2.50;;;;;;;12.87;100.00;96691.59;5092029;28;20290;-76
2021/09/11 04:10:02;;;;;;;8.63;3.03;;;;;;;12.66;100.00;96678.03;5092519;28;20589;-76
2021/09/11 04:12:29;;;;;;;10.53;3.90;;;;;;;12.54;100.00;96682.81;5092465;28;20285;-75
2021/09/11 04:14:56;;;;;;;4.90;2.60;;;;;;;12.66;100.00;96683.31;5091813;28;20617;-76
2021/09/11 04:17:25;;;;;;;4.77;2.90;;;;;;;12.99;100.00;96684.19;5092539;28;20194;-76
2021/09/11 04:19:52;;;;;;;5.30;2.50;;;;;;;13.11;100.00;96687.34;5092134;28;20702;-76
2021/09/11 04:22:19;;;;;;;6.83;3.17;;;;;;;13.20;100.00;96691.66;5092509;28;20227;-76
2021/09/11 04:24:47;;;;;;;3.67;2.60;;;;;;;13.14;100.00;96694.94;5091541;28;20688;-76
2021/09/11 04:27:14;;;;;;;6.10;3.10;;;;;;;12.92;100.00;96694.59;5091974;28;20699;-76
2021/09/11 04:29:42;;;;;;;3.33;3.07;;;;;;;12.89;100.00;96691.44;5092313;28;20207;-76
2021/09/11 04:32:09;;;;;;;3.30;2.97;;;;;;;12.76;100.00;96684.81;5092261;28;20278;-76
2021/09/11 04:34:38;;;;;;;9.23;3.20;;;;;;;12.64;100.00;96691.38;5091714;28;20287;-76
2021/09/11 04:37:05;;;;;;;5.50;2.73;;;;;;;12.51;100.00;96691.84;5091673;28;20202;-76
2021/09/11 04:39:33;;;;;;;3.27;2.97;;;;;;;12.28;100.00;96685.50;5092096;28;20227;-76
2021/09/11 04:42:00;;;;;;;4.10;2.90;;;;;;;12.36;100.00;96682.88;5092142;28;20207;-76
2021/09/11 04:44:28;;;;;;;3.23;2.47;;;;;;;12.47;100.00;96684.41;5091941;28;20202;-76
2021/09/11 04:46:55;;;;;;;4.33;2.80;;;;;;;12.75;100.00;96680.53;5091612;28;20285;-76
2021/09/11 04:49:23;;;;;;;4.60;2.50;;;;;;;12.80;100.00;96690.59;5091724;28;20293;-75
2021/09/11 04:51:51;;;;;;;5.93;2.63;;;;;;;12.95;100.00;96691.59;5092062;28;20585;-76
2021/09/11 04:54:18;;;;;;;4.37;2.80;;;;;;;12.96;100.00;96682.72;5091839;28;20556;-76
2021/09/11 04:56:46;;;;;;;8.10;3.83;;;;;;;12.88;100.00;96687.16;5091545;28;20235;-76
2021/09/11 04:59:13;;;;;;;5.07;2.90;;;;;;;12.84;100.00;96684.81;5091828;28;20196;-76
2021/09/11 05:01:40;;;;;;;4.53;3.03;;;;;;;12.71;100.00;96681.84;5091615;28;20684;-76
2021/09/11 05:04:08;;;;;;;3.63;2.90;;;;;;;12.81;100.00;96684.31;5091720;28;20283;-75
2021/09/11 05:06:36;;;;;;;4.00;2.50;;;;;;;12.99;100.00;96673.63;5091473;28;20230;-76
2021/09/11 05:09:05;;;;;;;6.07;2.97;;;;;;;13.13;100.00;96680.91;5091748;28;20215;-76
2021/09/11 05:11:32;;;;;;;5.03;2.90;;;;;;;13.31;100.00;96683.44;5091607;28;20250;-76
2021/09/11 05:13:59;;;;;;;5.63;3.20;;;;;;;13.17;100.00;96682.25;5091358;28;20661;-75
2021/09/11 05:16:26;;;;;;;6.73;2.70;;;;;;;13.16;100.00;96674.47;5095587;28;20280;-76
2021/09/11 05:18:54;;;;;;;7.43;3.57;;;;;;;13.33;100.00;96684.06;5095199;28;20200;-76
2021/09/11 05:21:21;;;;;;;4.87;3.03;;;;;;;13.39;100.00;96686.06;5095386;28;20205;-76
2021/09/11 05:23:48;;;;;;;4.77;3.00;;;;;;;13.47;100.00;96677.28;5094800;28;20588;-76
2021/09/11 05:26:17;;;;;;;6.20;2.97;;;;;;;13.60;100.00;96679.44;5095314;28;20227;-76
2021/09/11 05:28:44;;;;;;;2.90;2.63;;;;;;;13.56;100.00;96682.41;5095374;28;20195;-76
2021/09/11 05:31:11;;;;;;;3.43;3.10;;;;;;;13.67;100.00;96675.13;5095413;28;20703;-76
2021/09/11 05:33:39;;;;;;;5.00;3.93;;;;;;;13.78;100.00;96678.22;5094729;28;20234;-76
2021/09/11 05:36:06;;;;;;;8.80;2.90;;;;;;;13.74;100.00;96679.56;5094937;28;20199;-76
2021/09/11 05:38:33;;;;;;;3.70;3.20;;;;;;;13.72;100.00;96691.31;5095612;28;20232;-76
2021/09/11 05:41:00;;;;;;;3.03;2.73;;;;;;;13.76;100.00;96688.16;5091405;28;20235;-76
2021/09/11 05:43:29;;;;;;;6.60;3.20;;;;;;;13.74;100.00;96689.31;5094862;28;20196;-76
2021/09/11 05:45:56;;;;;;;6.30;2.63;;;;;;;13.91;100.00;96690.94;5094212;28;20576;-76
2021/09/11 05:48:24;;;;;;;4.63;2.77;;;;;;;14.11;100.00;96687.91;5094803;28;20653;-75
2021/09/11 05:50:51;;;;;;;5.77;2.93;;;;;;;14.31;100.00;96691.00;5094405;28;20197;-75
2021/09/11 05:53:19;;;;;;;3.40;3.10;;;;;;;14.46;100.00;96689.25;5094706;28;20192;-75
2021/09/11 05:55:46;;;;;;;4.97;3.20;;;;;;;14.69;100.00;96692.00;5093975;28;20204;-75
2021/09/11 05:58:14;;;;;;;2.57;2.30;;;;;;;14.90;100.00;96686.91;5094514;28;20202;-75
2021/09/11 06:00:42;;;;;;;7.63;2.93;;;;;;;15.07;100.00;96697.38;5094230;28;20196;-75
2021/09/11 06:03:10;;;;;;;5.93;3.23;;;;;;;15.12;100.00;96695.84;5094449;28;20235;-75
2021/09/11 06:05:37;;;;;;;3.93;3.50;;;;;;;15.23;100.00;96699.91;5094084;28;20224;-76
2021/09/11 06:08:05;;;;;;;16.30;10.10;;;;;;;15.31;100.00;96707.78;5093878;28;20545;-75
2021/09/11 06:10:32;;;;;;;21.43;17.83;;;;;;;15.46;100.00;96703.34;5094025;28;20586;-75
2021/09/11 06:13:00;;;;;;;17.47;15.67;;;;;;;15.59;100.00;96709.88;5094085;28;20204;-75
2021/09/11 06:15:28;;;;;;;5.90;5.40;;;;;;;15.64;100.00;96710.16;5093842;28;20253;-75
2021/09/11 06:17:57;;;;;;;7.17;5.33;;;;;;;15.82;100.00;96712.50;5093610;28;20205;-75
2021/09/11 06:20:24;;;;;;;3.53;3.23;;;;;;;15.95;100.00;96707.41;5093991;28;20235;-76
2021/09/11 06:22:51;;;;;;;3.30;2.70;;;;;;;16.01;100.00;96711.19;5094040;28;20669;-75
2021/09/11 06:25:18;;;;;;;3.40;3.03;;;;;;;16.04;100.00;96710.81;5093778;28;20351;-75
2021/09/11 06:27:46;;;;;;;6.43;2.80;;;;;;;16.16;100.00;96707.50;5092598;28;20230;-75
2021/09/11 06:30:14;;;;;;;3.33;3.00;;;;;;;16.29;100.00;96709.53;5093785;28;20576;-75
2021/09/11 06:32:41;;;;;;;4.63;2.70;;;;;;;16.44;100.00;96706.84;5093778;28;20733;-75
2021/09/11 06:35:10;;;;;;;2.97;2.50;;;;;;;16.60;100.00;96698.69;5093657;28;20236;-75
2021/09/11 06:37:37;;;;;;;6.30;3.80;;;;;;;16.75;100.00;96704.00;5093182;28;20232;-76
2021/09/11 06:40:06;;;;;;;3.20;2.70;;;;;;;16.83;100.00;96706.56;5093456;28;20765;-76
2021/09/11 06:42:33;;;;;;;5.30;2.83;;;;;;;17.06;100.00;96713.53;5093710;28;20206;-75
2021/09/11 06:45:00;;;;;;;5.77;2.70;;;;;;;17.10;100.00;96718.28;5093189;28;20208;-76
2021/09/11 06:47:27;;;;;;;3.87;2.73;;;;;;;17.31;100.00;96706.00;5093414;28;20225;-75
2021/09/11 06:49:55;;;;;;;3.77;2.70;;;;;;;17.54;100.00;96714.63;5093372;28;20198;-76
2021/09/11 06:52:23;;;;;;;4.70;2.57;;;;;;;17.70;100.00;96712.69;5093458;28;20238;-76
2021/09/11 06:54:51;;;;;;;7.53;3.20;;;;;;;17.70;100.00;96715.34;5093621;28;20287;-76
2021/09/11 06:57:18;;;;;;;8.80;3.07;;;;;;;18.01;100.00;96715.00;5090223;28;20207;-76
2021/09/11 06:59:45;;;;;;;3.20;2.30;;;;;;;18.37;100.00;96716.66;5093205;28;20221;-76
2021/09/11 07:02:12;;;;;;;3.97;2.50;;;;;;;18.50;100.00;96719.41;5093479;28;20282;-76
2021/09/11 07:04:39;;;;;;;7.50;3.67;;;;;;;18.86;100.00;96713.03;5093341;28;20558;-76
2021/09/11 07:07:08;;;;;;;4.47;2.67;;;;;;;18.74;100.00;96716.25;5093308;28;20219;-76
2021/09/11 07:09:37;;;;;;;9.20;6.10;;;;;;;18.95;100.00;96709.16;5093267;28;20607;-76
2021/09/11 07:12:04;;;;;;;42.20;19.10;;;;;;;19.03;100.00;96714.31;5092927;28;20287;-76
2021/09/11 07:14:32;;;;;;;19.23;7.07;;;;;;;19.24;100.00;96714.13;5092731;28;20287;-76
2021/09/11 07:16:59;;;;;;;28.90;20.43;;;;;;;19.51;100.00;96721.38;5093621;28;20196;-76
2021/09/11 07:19:28;;;;;;;9.47;4.80;;;;;;;19.78;100.00;96723.06;5093005;28;20694;-76
2021/09/11 07:21:56;;;;;;;8.97;4.17;;;;;;;19.94;100.00;96725.28;5093334;28;20196;-76
2021/09/11 07:24:23;;;;;;;8.90;3.37;;;;;;;20.34;100.00;96721.75;5092461;28;20720;-76
2021/09/11 07:26:52;;;;;;;7.07;3.93;;;;;;;20.31;100.00;96720.31;5092853;28;20264;-76
2021/09/11 07:29:19;;;;;;;13.23;3.60;;;;;;;20.58;100.00;96730.97;5093192;28;20228;-76
2021/09/11 07:31:46;;;;;;;6.63;3.80;;;;;;;20.91;100.00;96728.16;5093148;28;20211;-76
2021/09/11 07:34:14;;;;;;;5.97;4.13;;;;;;;21.20;100.00;96731.28;5092495;28;20207;-76
2021/09/11 07:36:41;;;;;;;5.33;3.40;;;;;;;21.31;100.00;96738.66;5092817;28;20691;-77
2021/09/11 07:39:09;;;;;;;3.60;3.03;;;;;;;21.67;100.00;96726.50;5091584;28;20203;-76
2021/09/11 07:41:36;;;;;;;10.43;3.80;;;;;;;22.11;100.00;96730.06;5092672;28;20196;-77
2021/09/11 07:44:05;;;;;;;5.83;4.30;;;;;;;22.35;100.00;96737.25;5092210;28;20303;-77
2021/09/11 07:46:32;;;;;;;7.17;3.47;;;;;;;22.52;100.00;96740.19;5092986;28;20283;-77
2021/09/11 07:48:59;;;;;;;12.97;4.50;;;;;;;22.78;100.00;96745.22;5092323;28;20196;-77
2021/09/11 07:51:26;;;;;;;5.57;3.90;;;;;;;23.06;100.00;96735.84;5092757;28;20234;-77
2021/09/11 07:53:54;;;;;;;6.57;3.97;;;;;;;23.29;100.00;96740.50;5092236;28;20752;-77
2021/09/11 07:56:21;;;;;;;5.90;3.73;;;;;;;23.63;100.00;96728.25;5092624;28;20200;-77
2021/09/11 07:58:48;;;;;;;10.10;4.20;;;;;;;23.81;100.00;96726.56;5092514;28;20584;-77
2021/09/11 08:01:17;;;;;;;10.70;4.03;;;;;;;23.83;100.00;96719.91;5092321;28;20287;-77
2021/09/11 08:03:44;;;;;;;6.03;4.00;;;;;;;24.07;100.00;96725.28;5092242;28;20231;-77
2021/09/11 08:06:11;;;;;;;6.23;4.53;;;;;;;24.10;100.00;96728.31;5092145;28;20204;-77
2021/09/11 08:08:39;;;;;;;7.27;3.67;;;;;;;24.23;100.00;96721.91;5092495;28;20220;-77
2021/09/11 08:11:08;;;;;;;6.57;3.90;;;;;;;24.27;100.00;96724.94;5092124;28;20291;-77
2021/09/11 08:13:35;;;;;;;6.90;4.00;;;;;;;24.46;100.00;96723.00;5092117;28;20208;-77
2021/09/11 08:16:03;;;;;;;7.77;3.90;;;;;;;24.19;100.00;96724.25;5091952;28;20192;-77
2021/09/11 08:18:32;;;;;;;8.60;4.00;;;;;;;24.24;100.00;96720.84;5092094;28;20283;-77
2021/09/11 08:20:59;;;;;;;7.03;4.03;;;;;;;24.19;100.00;96718.06;5092007;28;20200;-77
2021/09/11 08:23:26;;;;;;;5.17;3.40;;;;;;;23.78;100.00;96714.41;5091940;28;20567;-77
2021/09/11 08:25:53;;;;;;;7.00;3.97;;;;;;;24.19;100.00;96708.13;5091692;28;20232;-77
2021/09/11 08:28:21;;;;;;;6.17;4.20;;;;;;;23.98;100.00;96706.03;5092312;28;20250;-77
2021/09/11 08:30:48;;;;;;;10.60;3.47;;;;;;;24.17;100.00;96704.03;5091744;28;20232;-77
2021/09/11 08:33:16;;;;;;;7.23;4.13;;;;;;;24.19;100.00;96702.75;5092175;28;20559;-77
2021/09/11 08:35:45;;;;;;;5.60;4.03;;;;;;;23.84;100.00;96701.94;5092004;28;20200;-77
2021/09/11 08:38:12;;;;;;;9.00;4.67;;;;;;;24.17;100.00;96695.97;5091941;28;20188;-77
2021/09/11 08:40:40;;;;;;;5.03;3.83;;;;;;;24.44;100.00;96691.78;5091926;28;20283;-77
2021/09/11 08:43:08;;;;;;;5.57;3.67;;;;;;;24.32;100.00;96690.97;5091772;28;20291;-77
2021/09/11 08:45:35;;;;;;;7.50;4.50;;;;;;;24.27;100.00;96687.34;5091961;28;20200;-77
2021/09/11 08:48:03;;;;;;;5.97;4.40;;;;;;;23.90;100.00;96688.41;5091784;28;20314;-77
2021/09/11 08:50:30;;;;;;;5.77;4.73;;;;;;;24.20;100.00;96692.84;5093963;28;20635;-77
2021/09/11 08:52:59;;;;;;;12.37;10.27;;;;;;;24.43;100.00;96690.16;5096000;28;20257;-77
2021/09/11 08:55:26;;;;;;;6.87;6.00;;;;;;;24.59;100.00;96685.09;5095619;28;20203;-77
2021/09/11 08:58:01;;;;;;;5.50;4.03;;;;;;;24.75;100.00;96686.22;5096189;28;20200;-77
2021/09/11 09:00:44;;;;;;;10.07;4.03;;;;;;;25.13;100.00;96680.28;5095287;28;20206;-77
2021/09/11 09:03:31;;;;;;;8.37;5.13;;;;;;;25.17;100.00;96681.41;5094172;28;20212;-77
2021/09/11 09:06:11;;;;;;;10.73;4.60;;;;;;;25.03;100.00;96674.69;5095453;28;20238;-77
2021/09/11 09:08:40;;;;;;;5.30;4.80;;;;;;;25.13;100.00;96674.91;5095277;28;20295;-78
2021/09/11 09:11:23;;;;;;;7.97;4.03;;;;;;;25.03;100.00;96678.19;5095588;28;20234;-78
2021/09/11 09:13:59;;;;;;;6.47;4.13;;;;;;;24.99;100.00;96668.16;5095537;28;20189;-78
2021/09/11 09:16:28;;;;;;;8.73;4.50;;;;;;;25.21;100.00;96671.00;5095641;28;20541;-78
2021/09/11 09:18:56;;;;;;;6.40;4.00;;;;;;;25.24;100.00;96665.94;5095318;28;20633;-78
2021/09/11 09:21:26;;;;;;;10.63;4.20;;;;;;;25.32;100.00;96668.25;5095591;28;20637;-77
2021/09/11 09:23:57;;;;;;;7.50;3.87;;;;;;;26.07;100.00;96666.25;5091605;28;20560;-78
2021/09/11 09:26:25;;;;;;;6.73;4.70;;;;;;;26.69;100.00;96668.72;5095562;28;20652;-78
2021/09/11 09:29:09;;;;;;;7.60;5.13;;;;;;;27.33;100.00;96659.16;5094689;28;21134;-78
2021/09/11 09:31:38;;;;;;;6.17;4.07;;;;;;;27.42;100.00;96654.94;5094862;28;20192;-78
2021/09/11 09:34:05;;;;;;;8.68;4.90;;;;;;;26.98;100.00;96657.69;5094667;28;20744;-77
2021/09/11 09:36:37;;;;;;;5.55;4.05;;;;;;;27.19;100.00;96656.91;5095011;28;20738;-77
2021/09/11 09:39:09;;;;;;;7.25;4.65;;;;;;;27.14;100.00;96656.84;5094788;28;20196;-77
2021/09/11 09:41:48;;;;;;;7.32;4.35;;;;;;;27.07;100.00;96653.50;5094806;28;20181;-78
2021/09/11 09:44:16;;;;;;;13.90;4.70;;;;;;;27.14;100.00;96656.03;5093498;28;20198;-78
2021/09/11 09:46:46;;;;;;;8.18;4.60;;;;;;;27.34;100.00;96640.03;5094821;28;20200;-78
2021/09/11 09:49:17;;;;;;;6.00;4.53;;;;;;;26.99;100.00;96643.16;5094700;28;20281;-78
2021/09/11 09:51:45;;;;;;;7.65;5.18;;;;;;;26.55;100.00;96646.72;5094823;28;20184;-78
2021/09/11 09:54:15;;;;;;;6.20;3.92;;;;;;;27.04;100.00;96635.94;5094669;28;20197;-78
2021/09/11 09:56:43;;;;;;;7.43;4.45;;;;;;;27.55;100.00;96640.22;5095047;28;20189;-78
2021/09/11 09:59:11;;;;;;;8.20;3.95;;;;;;;27.72;100.00;96635.47;5094378;28;20665;-78
2021/09/11 10:01:39;;;;;;;6.75;4.53;;;;;;;26.75;100.00;96653.41;5093799;28;20275;-78
2021/09/11 10:04:24;;;;;;;4.22;3.90;;;;;;;27.04;100.00;96641.31;5094316;28;20193;-78
2021/09/11 10:06:55;;;;;;;6.03;4.22;;;;;;;26.96;100.00;96647.19;5094352;28;20180;-78
2021/09/11 10:09:27;;;;;;;13.27;4.45;;;;;;;26.92;100.00;96640.66;5094601;28;20645;-78
2021/09/11 10:11:55;;;;;;;10.52;5.25;;;;;;;27.09;100.00;96640.56;5094486;28;20576;-78
2021/09/11 10:14:24;;;;;;;22.73;20.52;;;;;;;27.18;100.00;96641.75;5094218;28;20198;-78
2021/09/11 10:16:59;;;;;;;8.77;5.30;;;;;;;26.83;100.00;96650.25;5094337;28;20668;-78
2021/09/11 10:19:27;;;;;;;10.00;4.18;;;;;;;27.29;100.00;96639.16;5094411;28;20230;-78
2021/09/11 10:22:07;;;;;;;6.00;4.30;;;;;;;27.71;100.00;96642.78;5094268;28;20211;-78
2021/09/11 10:24:37;;;;;;;8.27;3.45;;;;;;;27.37;100.00;96638.72;5093956;28;20711;-78
2021/09/11 10:27:11;;;;;;;14.00;4.50;;;;;;;26.94;100.00;96629.63;5094130;28;20203;-79
2021/09/11 10:29:45;;;;;;;10.90;4.03;;;;;;;26.52;100.00;96631.03;5094075;28;20191;-78
2021/09/11 10:32:28;;;;;;;7.90;4.35;;;;;;;26.46;100.00;96637.38;5091475;28;20286;-78
2021/09/11 10:35:02;;;;;;;8.68;4.40;;;;;;;26.86;100.00;96630.06;5093673;28;20613;-79
2021/09/11 10:37:37;;;;;;;9.23;5.00;;;;;;;27.05;100.00;96628.63;5093777;28;20195;-78
2021/09/11 10:40:33;;;;;;;7.82;4.35;;;;;;;27.29;100.00;96626.47;5093590;28;20184;-78
2021/09/11 10:43:11;;;;;;;6.63;3.92;;;;;;;27.10;100.00;96628.72;5080097;28;20261;-78
2021/09/11 10:45:40;;;;;;;6.68;3.65;;;;;;;27.38;100.00;96626.84;5093855;28;20261;-78
2021/09/11 10:48:28;;;;;;;6.35;4.07;;;;;;;27.46;100.00;96621.75;5093859;28;20223;-79
2021/09/11 10:50:55;;;;;;;11.85;4.93;;;;;;;27.73;100.00;96620.91;5093235;28;20185;-79
2021/09/11 10:53:24;;;;;;;4.15;3.72;;;;;;;27.56;100.00;96617.53;5093582;28;20334;-79
2021/09/11 10:55:52;;;;;;;8.50;3.90;;;;;;;27.69;100.00;96626.00;5093306;28;20651;-79
2021/09/11 10:58:23;;;;;;;5.97;4.30;;;;;;;27.83;100.00;96620.19;5093388;28;20290;-79
2021/09/11 11:00:57;;;;;;;7.47;3.53;;;;;;;27.83;100.00;96612.09;5093234;28;20284;-79
2021/09/11 11:03:25;;;;;;;6.20;4.15;;;;;;;27.62;100.00;96616.50;5093724;28;20215;-79
2021/09/11 11:06:02;;;;;;;7.38;3.70;;;;;;;27.58;100.00;96610.81;5093098;28;20222;-79
2021/09/11 11:08:30;;;;;;;4.55;4.13;;;;;;;27.04;100.00;96605.44;5093589;28;20231;-79
2021/09/11 11:11:01;;;;;;;10.63;5.00;;;;;;;27.13;100.00;96601.25;5093089;28;20200;-79
2021/09/11 11:13:29;;;;;;;7.13;4.60;;;;;;;27.35;100.00;96603.88;5093022;28;20184;-79
2021/09/11 11:15:57;;;;;;;6.70;4.07;;;;;;;27.26;100.00;96605.41;5092668;28;20192;-79
2021/09/11 11:18:29;;;;;;;5.20;4.70;;;;;;;27.49;100.00;96588.06;5093017;28;20253;-79
2021/09/11 11:20:56;;;;;;;4.75;3.88;;;;;;;27.35;100.00;96597.66;5092671;28;20275;-78
2021/09/11 11:23:23;;;;;;;7.93;4.32;;;;;;;27.33;100.00;96599.78;5092526;28;20239;-79
2021/09/11 11:25:52;;;;;;;5.75;3.83;;;;;;;27.08;100.00;96597.66;5092557;28;20232;-79
2021/09/11 11:28:23;;;;;;;5.40;4.00;;;;;;;26.98;100.00;96598.34;5092754;28;20263;-78
2021/09/11 11:30:53;;;;;;;4.80;4.13;;;;;;;26.81;100.00;96601.19;5092561;28;20667;-78